createdAt,value
2019-05-22T00:01:09.174Z,99.90
2019-05-22T00:03:49.002Z,99.90
2019-05-22T00:06:24.801Z,99.90
2019-05-22T00:08:55.216Z,99.90
2019-05-22T00:11:27.931Z,99.90
2019-05-22T00:14:00.149Z,99.90
2019-05-22T00:16:31.652Z,99.90
2019-05-22T00:19:03.532Z,99.90
2019-05-22T00:21:35.535Z,99.90
2019-05-22T00:24:07.993Z,99.90
2019-05-22T00:26:38.394Z,99.90
2019-05-22T00:29:10.430Z,99.90
2019-05-22T00:31:41.666Z,99.90
2019-05-22T00:34:14.169Z,99.90
2019-05-22T00:36:44.533Z,99.90
2019-05-22T00:39:16.933Z,99.90
2019-05-22T00:41:51.692Z,99.90
2019-05-22T00:44:23.015Z,99.90
2019-05-22T00:46:55.537Z,99.90
2019-05-22T00:49:27.248Z,99.90
2019-05-22T00:52:07.165Z,99.90
2019-05-22T00:54:44.344Z,99.90
2019-05-22T00:57:42.420Z,99.90
2019-05-22T01:00:35.219Z,99.90
2019-05-22T01:03:07.588Z,99.90
2019-05-22T01:05:41.618Z,99.90
2019-05-22T01:08:15.961Z,99.90
2019-05-22T01:10:50.923Z,99.90
2019-05-22T01:13:22.699Z,99.90
2019-05-22T01:15:55.407Z,99.90
2019-05-22T01:18:31.018Z,99.90
2019-05-22T01:21:03.676Z,99.90
2019-05-22T01:23:36.896Z,99.90
2019-05-22T01:26:09.639Z,99.90
2019-05-22T01:28:43.528Z,99.90
2019-05-22T01:31:22.541Z,99.90
2019-05-22T01:33:56.809Z,99.90
2019-05-22T01:36:41.622Z,99.90
2019-05-22T01:39:24.193Z,99.90
2019-05-22T01:41:57.097Z,99.90
2019-05-22T01:44:30.298Z,99.90
2019-05-22T01:47:06.798Z,99.90
2019-05-22T01:49:43.371Z,99.90
2019-05-22T01:52:15.367Z,99.90
2019-05-22T01:54:46.756Z,99.90
2019-05-22T01:57:18.818Z,99.90
2019-05-22T01:59:51.274Z,99.90
2019-05-22T02:02:26.283Z,99.90
2019-05-22T02:04:59.592Z,99.90
2019-05-22T02:07:30.836Z,99.90
2019-05-22T02:10:02.708Z,99.90
2019-05-22T02:12:51.206Z,99.90
2019-05-22T02:15:22.051Z,99.90
2019-05-22T02:17:52.740Z,99.90
2019-05-22T02:20:24.733Z,99.90
2019-05-22T02:22:55.135Z,99.90
2019-05-22T02:25:25.529Z,99.90
2019-05-22T02:27:56.653Z,99.90
2019-05-22T02:30:29.605Z,99.90
2019-05-22T02:33:01.031Z,99.90
2019-05-22T02:35:31.515Z,99.90
2019-05-22T02:38:01.858Z,99.90
2019-05-22T02:40:37.028Z,99.90
2019-05-22T02:43:09.346Z,99.90
2019-05-22T02:45:39.923Z,99.90
2019-05-22T02:48:11.331Z,99.90
2019-05-22T02:50:42.021Z,99.90
2019-05-22T02:53:14.990Z,99.90
2019-05-22T02:55:45.448Z,99.90
2019-05-22T02:58:18.643Z,99.90
2019-05-22T03:01:02.603Z,99.90
2019-05-22T03:03:33.924Z,99.90
2019-05-22T03:06:07.619Z,99.90
2019-05-22T03:09:16.143Z,99.90
2019-05-22T03:11:55.877Z,99.90
2019-05-22T03:14:27.019Z,99.90
2019-05-22T03:17:03.015Z,99.90
2019-05-22T03:19:41.189Z,99.90
2019-05-22T03:22:29.163Z,99.90
2019-05-22T03:25:03.790Z,99.90
2019-05-22T03:27:43.391Z,99.90
2019-05-22T03:30:21.489Z,99.90
2019-05-22T03:32:52.225Z,99.90
2019-05-22T03:35:23.912Z,99.90
2019-05-22T03:37:56.419Z,99.90
2019-05-22T03:40:28.878Z,99.90
2019-05-22T03:43:05.288Z,99.90
2019-05-22T03:45:37.296Z,99.90
2019-05-22T03:48:08.769Z,99.90
2019-05-22T03:50:39.115Z,99.90
2019-05-22T03:53:20.140Z,99.90
2019-05-22T03:55:50.980Z,99.90
2019-05-22T03:58:22.166Z,99.90
2019-05-22T04:00:53.141Z,99.90
2019-05-22T04:03:24.452Z,99.90
2019-05-22T04:05:56.045Z,99.90
2019-05-22T04:08:27.682Z,99.90
2019-05-22T04:11:03.489Z,99.90
2019-05-22T04:13:34.494Z,99.90
2019-05-22T04:16:08.397Z,99.90
2019-05-22T04:18:40.906Z,99.90
2019-05-22T04:21:11.229Z,99.90
2019-05-22T04:23:41.616Z,99.90
2019-05-22T04:26:13.887Z,99.90
2019-05-22T04:28:51.062Z,99.90
2019-05-22T04:31:51.390Z,99.90
2019-05-22T04:34:22.594Z,99.90
2019-05-22T04:36:54.117Z,99.90
2019-05-22T04:39:27.392Z,99.90
2019-05-22T04:41:59.053Z,99.90
2019-05-22T04:44:29.628Z,99.90
2019-05-22T04:47:00.594Z,99.90
2019-05-22T04:49:31.291Z,99.90
2019-05-22T04:52:01.944Z,99.90
2019-05-22T04:54:32.426Z,99.90
2019-05-22T04:57:04.044Z,99.90
2019-05-22T04:59:35.019Z,99.90
2019-05-22T05:02:06.923Z,99.90
2019-05-22T05:04:37.618Z,99.90
2019-05-22T05:07:08.479Z,99.90
2019-05-22T05:09:38.835Z,99.90
2019-05-22T05:12:10.371Z,99.90
2019-05-22T05:14:40.998Z,99.90
2019-05-22T05:17:11.631Z,99.90
2019-05-22T05:19:42.107Z,99.90
2019-05-22T05:22:16.592Z,99.90
2019-05-22T05:24:46.962Z,99.90
2019-05-22T05:27:17.283Z,99.90
2019-05-22T05:29:47.692Z,99.90
2019-05-22T05:32:18.161Z,99.90
2019-05-22T05:35:01.471Z,99.90
2019-05-22T05:37:32.114Z,99.90
2019-05-22T05:40:47.191Z,99.90
2019-05-22T05:43:19.140Z,99.90
2019-05-22T05:45:51.704Z,99.90
2019-05-22T05:48:22.919Z,99.90
2019-05-22T05:51:29.213Z,99.90
2019-05-22T05:54:05.643Z,99.90
2019-05-22T05:56:37.451Z,99.90
2019-05-22T05:59:08.807Z,99.90
2019-05-22T06:01:43.725Z,99.90
2019-05-22T06:04:16.032Z,99.90
2019-05-22T06:07:20.914Z,99.90
2019-05-22T06:10:23.937Z,99.90
2019-05-22T06:12:54.669Z,99.90
2019-05-22T06:15:46.470Z,99.90
2019-05-22T06:18:34.620Z,99.90
2019-05-22T06:21:07.307Z,99.90
2019-05-22T06:24:15.332Z,99.90
2019-05-22T06:27:02.523Z,99.90
2019-05-22T06:29:42.795Z,99.90
2019-05-22T06:32:55.445Z,99.90
2019-05-22T06:35:29.785Z,99.90
2019-05-22T06:38:41.873Z,99.90
2019-05-22T06:41:12.374Z,99.90
2019-05-22T06:44:39.774Z,99.90
2019-05-22T06:47:25.770Z,99.90
2019-05-22T06:49:59.548Z,99.90
2019-05-22T06:52:29.970Z,99.90
2019-05-22T06:55:00.311Z,99.90
2019-05-22T06:57:34.497Z,99.90
2019-05-22T07:00:15.185Z,99.90
2019-05-22T07:02:45.620Z,99.90
2019-05-22T07:05:16.557Z,99.90
2019-05-22T07:07:48.121Z,99.90
2019-05-22T07:10:20.754Z,99.90
2019-05-22T07:12:51.926Z,99.90
2019-05-22T07:15:39.626Z,99.90
2019-05-22T07:18:13.103Z,99.90
2019-05-22T07:20:45.583Z,99.90
2019-05-22T07:23:20.507Z,99.90
2019-05-22T07:25:51.913Z,99.90
2019-05-22T07:28:24.013Z,99.90
2019-05-22T07:30:55.299Z,99.90
2019-05-22T07:33:25.947Z,99.90
2019-05-22T07:36:09.577Z,99.90
2019-05-22T07:38:30.143Z,99.90
2019-05-22T07:41:04.060Z,99.90
2019-05-22T07:43:34.500Z,99.90
2019-05-22T07:46:05.227Z,99.90
2019-05-22T07:48:36.444Z,98.30
2019-05-22T07:51:08.225Z,99.40
2019-05-22T07:53:38.657Z,98.70
2019-05-22T07:56:11.489Z,99.20
2019-05-22T07:58:43.212Z,98.60
2019-05-22T08:01:15.910Z,98.40
2019-05-22T08:03:48.631Z,99.60
2019-05-22T08:06:21.372Z,97.80
2019-05-22T08:08:54.177Z,98.30
2019-05-22T08:11:27.134Z,98.00
2019-05-22T08:13:58.862Z,97.20
2019-05-22T08:16:31.771Z,98.40
2019-05-22T08:19:02.507Z,98.40
2019-05-22T08:21:33.084Z,98.60
2019-05-22T08:24:03.571Z,98.50
2019-05-22T08:26:51.647Z,97.40
2019-05-22T08:29:07.438Z,96.30
2019-05-22T08:31:39.124Z,96.20
2019-05-22T08:34:10.338Z,97.00
2019-05-22T08:36:40.929Z,96.80
2019-05-22T08:39:11.770Z,95.40
2019-05-22T08:41:44.098Z,97.00
2019-05-22T08:44:17.878Z,95.00
2019-05-22T08:46:49.962Z,92.30
2019-05-22T08:49:20.401Z,92.20
2019-05-22T08:51:51.760Z,91.40
2019-05-22T08:54:22.071Z,91.20
2019-05-22T08:56:54.223Z,91.30
2019-05-22T08:59:24.550Z,90.10
2019-05-22T09:01:56.213Z,91.10
2019-05-22T09:04:28.022Z,84.80
2019-05-22T09:06:59.143Z,83.40
2019-05-22T09:09:30.687Z,88.30
2019-05-22T09:12:01.287Z,85.80
2019-05-22T09:14:31.836Z,84.30
2019-05-22T09:17:02.631Z,85.20
2019-05-22T09:19:33.249Z,82.40
2019-05-22T09:22:05.550Z,81.00
2019-05-22T09:24:36.946Z,81.50
2019-05-22T09:27:07.961Z,79.30
2019-05-22T09:29:38.405Z,81.60
2019-05-22T09:32:09.393Z,80.30
2019-05-22T09:34:40.731Z,80.20
2019-05-22T09:37:11.327Z,84.40
2019-05-22T09:39:41.992Z,80.90
2019-05-22T09:42:12.399Z,86.00
2019-05-22T09:44:42.801Z,83.90
2019-05-22T09:47:14.045Z,80.80
2019-05-22T09:49:45.980Z,83.20
2019-05-22T09:52:16.664Z,80.10
2019-05-22T09:54:47.167Z,78.50
2019-05-22T09:57:17.558Z,77.40
2019-05-22T09:59:47.906Z,82.90
2019-05-22T10:02:18.718Z,82.40
2019-05-22T10:04:49.117Z,77.30
2019-05-22T10:07:20.879Z,79.10
2019-05-22T10:09:51.634Z,80.10
2019-05-22T10:12:22.379Z,77.60
2019-05-22T10:14:53.288Z,78.80
2019-05-22T10:17:24.501Z,79.50
2019-05-22T10:19:55.343Z,79.60
2019-05-22T10:22:27.245Z,80.10
2019-05-22T10:25:15.074Z,82.30
2019-05-22T10:27:30.940Z,78.80
2019-05-22T10:30:02.183Z,72.70
2019-05-22T10:32:32.769Z,74.80
2019-05-22T10:35:05.102Z,75.40
2019-05-22T10:37:35.575Z,76.10
2019-05-22T10:40:06.278Z,77.20
2019-05-22T10:42:37.159Z,77.90
2019-05-22T10:45:07.891Z,77.80
2019-05-22T10:47:38.447Z,76.40
2019-05-22T10:50:09.770Z,75.00
2019-05-22T10:52:40.328Z,68.50
2019-05-22T10:55:12.997Z,69.30
2019-05-22T10:57:44.935Z,69.40
2019-05-22T11:00:17.971Z,67.40
2019-05-22T11:02:49.432Z,69.60
2019-05-22T11:05:21.591Z,72.50
2019-05-22T11:07:52.869Z,72.90
2019-05-22T11:10:24.441Z,73.20
2019-05-22T11:12:55.126Z,72.40
2019-05-22T11:15:26.249Z,69.90
2019-05-22T11:17:56.750Z,60.30
2019-05-22T11:20:28.862Z,56.30
2019-05-22T11:22:59.347Z,57.60
2019-05-22T11:25:30.181Z,54.60
2019-05-22T11:28:01.558Z,52.80
2019-05-22T11:30:32.805Z,50.60
2019-05-22T11:33:03.706Z,47.60
2019-05-22T11:35:34.032Z,47.10
2019-05-22T11:38:04.644Z,47.20
2019-05-22T11:40:35.339Z,47.20
2019-05-22T11:43:06.695Z,47.60
2019-05-22T11:45:37.229Z,47.40
2019-05-22T11:48:07.756Z,47.20
2019-05-22T11:50:38.278Z,45.60
2019-05-22T11:53:09.377Z,44.90
2019-05-22T11:55:45.122Z,44.40
2019-05-22T11:58:13.078Z,43.60
2019-05-22T12:00:43.671Z,42.90
2019-05-22T12:03:14.301Z,43.30
2019-05-22T12:05:45.261Z,40.80
2019-05-22T12:08:15.944Z,41.70
2019-05-22T12:10:46.269Z,43.30
2019-05-22T12:13:17.206Z,44.30
2019-05-22T12:15:47.950Z,43.40
2019-05-22T12:18:19.447Z,42.30
2019-05-22T12:20:49.776Z,40.40
2019-05-22T12:23:20.599Z,38.80
2019-05-22T12:25:50.912Z,37.60
2019-05-22T12:28:21.607Z,36.90
2019-05-22T12:30:52.272Z,39.00
2019-05-22T12:33:24.059Z,38.30
2019-05-22T12:35:54.742Z,36.80
2019-05-22T12:38:27.089Z,36.70
2019-05-22T12:40:58.547Z,36.30
2019-05-22T12:43:31.280Z,36.40
2019-05-22T12:46:02.061Z,35.80
2019-05-22T12:48:32.656Z,36.80
2019-05-22T12:51:03.064Z,35.30
2019-05-22T12:53:33.728Z,36.20
2019-05-22T12:56:04.740Z,35.60
2019-05-22T12:58:35.265Z,35.30
2019-05-22T13:01:06.398Z,35.70
2019-05-22T13:03:37.693Z,35.00
2019-05-22T13:06:10.070Z,33.00
2019-05-22T13:08:41.118Z,33.90
2019-05-22T13:11:11.636Z,32.10
2019-05-22T13:13:42.556Z,31.00
2019-05-22T13:16:13.708Z,30.90
2019-05-22T13:18:45.283Z,32.30
2019-05-22T13:21:20.766Z,33.30
2019-05-22T13:23:53.826Z,33.20
2019-05-22T13:26:25.376Z,32.60
2019-05-22T13:28:56.754Z,33.20
2019-05-22T13:31:27.516Z,33.10
2019-05-22T13:33:59.302Z,32.90
2019-05-22T13:36:30.325Z,30.90
2019-05-22T13:39:00.925Z,30.60
2019-05-22T13:41:32.787Z,30.10
2019-05-22T13:44:05.642Z,30.50
2019-05-22T13:46:36.867Z,30.70
2019-05-22T13:49:08.413Z,30.30
2019-05-22T13:51:40.982Z,29.10
2019-05-22T13:54:13.888Z,29.90
2019-05-22T13:56:45.842Z,30.80
2019-05-22T13:59:16.649Z,29.10
2019-05-22T14:01:47.749Z,28.90
2019-05-22T14:04:19.122Z,27.20
2019-05-22T14:06:50.331Z,27.40
2019-05-22T14:09:21.858Z,26.60
2019-05-22T14:11:54.616Z,28.10
2019-05-22T14:14:25.461Z,26.70
2019-05-22T14:16:55.777Z,27.00
2019-05-22T14:19:26.193Z,26.20
2019-05-22T14:21:57.337Z,25.90
2019-05-22T14:24:27.897Z,26.50
2019-05-22T14:26:58.230Z,26.50
2019-05-22T14:29:28.689Z,27.50
2019-05-22T14:31:59.580Z,25.80
2019-05-22T14:34:29.979Z,26.60
2019-05-22T14:37:00.348Z,24.10
2019-05-22T14:39:31.111Z,25.00
2019-05-22T14:42:01.721Z,24.70
2019-05-22T14:44:34.083Z,24.90
2019-05-22T14:47:13.208Z,25.10
2019-05-22T14:49:36.895Z,25.00
2019-05-22T14:52:07.691Z,25.00
2019-05-22T14:54:38.324Z,25.00
2019-05-22T14:57:10.224Z,24.70
2019-05-22T14:59:40.701Z,24.40
2019-05-22T15:02:11.712Z,25.40
2019-05-22T15:04:42.119Z,27.10
2019-05-22T15:07:13.089Z,25.20
2019-05-22T15:09:43.521Z,25.30
2019-05-22T15:12:14.161Z,24.10
2019-05-22T15:14:44.893Z,24.30
2019-05-22T15:17:31.264Z,25.00
2019-05-22T15:19:48.235Z,24.60
2019-05-22T15:22:19.102Z,24.80
2019-05-22T15:24:49.543Z,24.10
2019-05-22T15:27:20.213Z,24.50
2019-05-22T15:29:50.564Z,23.80
2019-05-22T15:32:21.414Z,22.90
2019-05-22T15:34:52.697Z,22.50
2019-05-22T15:37:26.432Z,23.50
2019-05-22T15:39:58.055Z,23.20
2019-05-22T15:42:37.071Z,23.40
2019-05-22T15:45:12.254Z,23.70
2019-05-22T15:47:54.725Z,24.70
2019-05-22T15:50:21.115Z,24.80
2019-05-22T15:52:57.169Z,25.00
2019-05-22T15:55:30.056Z,23.80
2019-05-22T15:58:00.779Z,24.30
2019-05-22T16:00:33.738Z,23.70
2019-05-22T16:03:12.067Z,23.20
2019-05-22T16:05:43.644Z,22.60
2019-05-22T16:08:15.841Z,23.20
2019-05-22T16:10:50.045Z,22.80
2019-05-22T16:13:22.791Z,22.30
2019-05-22T16:15:57.021Z,23.40
2019-05-22T16:18:29.414Z,23.50
2019-05-22T16:21:02.565Z,22.50
2019-05-22T16:23:37.504Z,23.10
2019-05-22T16:26:09.736Z,23.10
2019-05-22T16:28:42.606Z,21.50
2019-05-22T16:31:13.569Z,21.10
2019-05-22T16:33:45.905Z,21.60
2019-05-22T16:36:18.655Z,21.60
2019-05-22T16:38:49.717Z,21.10
2019-05-22T16:41:22.545Z,21.20
2019-05-22T16:43:54.618Z,21.20
2019-05-22T16:46:26.168Z,22.20
2019-05-22T16:48:57.192Z,22.90
2019-05-22T16:51:28.757Z,22.50
2019-05-22T16:54:04.528Z,22.00
2019-05-22T16:56:36.138Z,22.50
2019-05-22T16:59:08.906Z,21.50
2019-05-22T17:01:56.874Z,21.80
2019-05-22T17:04:12.402Z,22.50
2019-05-22T17:06:44.438Z,23.40
2019-05-22T17:09:16.621Z,23.10
2019-05-22T17:11:48.705Z,22.80
2019-05-22T17:14:21.386Z,23.20
2019-05-22T17:16:54.768Z,23.10
2019-05-22T17:19:27.722Z,23.00
2019-05-22T17:21:58.882Z,22.90
2019-05-22T17:24:33.975Z,22.70
2019-05-22T17:27:04.684Z,23.70
2019-05-22T17:29:35.449Z,23.40
2019-05-22T17:32:06.398Z,22.90
2019-05-22T17:34:38.650Z,22.70
2019-05-22T17:37:14.417Z,22.60
2019-05-22T17:39:49.015Z,22.80
2019-05-22T17:42:23.419Z,22.90
2019-05-22T17:44:54.567Z,23.10
2019-05-22T17:47:27.023Z,23.20
2019-05-22T17:49:59.479Z,23.10
2019-05-22T17:52:29.948Z,23.10
2019-05-22T17:55:01.163Z,23.40
2019-05-22T17:57:33.408Z,23.90
2019-05-22T18:00:06.915Z,24.30
2019-05-22T18:02:38.651Z,24.60
2019-05-22T18:05:11.406Z,24.90
2019-05-22T18:07:42.044Z,25.20
2019-05-22T18:10:13.756Z,25.70
2019-05-22T18:12:44.121Z,25.90
2019-05-22T18:15:16.080Z,26.00
2019-05-22T18:17:46.938Z,26.60
2019-05-22T18:20:18.464Z,26.80
2019-05-22T18:22:48.837Z,27.10
2019-05-22T18:25:20.735Z,27.60
2019-05-22T18:27:52.311Z,28.10
2019-05-22T18:30:24.590Z,29.20
2019-05-22T18:32:55.342Z,30.70
2019-05-22T18:35:26.579Z,32.00
2019-05-22T18:37:57.176Z,32.80
2019-05-22T18:40:28.856Z,33.10
2019-05-22T18:43:00.217Z,33.50
2019-05-22T18:45:31.560Z,34.50
2019-05-22T18:48:01.924Z,35.20
2019-05-22T18:50:33.080Z,36.30
2019-05-22T18:53:04.174Z,37.60
2019-05-22T18:55:34.632Z,38.60
2019-05-22T18:58:05.109Z,39.30
2019-05-22T19:00:35.614Z,40.40
2019-05-22T19:03:08.539Z,41.50
2019-05-22T19:05:39.269Z,42.30
2019-05-22T19:08:09.781Z,43.50
2019-05-22T19:10:40.241Z,44.60
2019-05-22T19:13:14.347Z,45.40
2019-05-22T19:15:43.759Z,46.30
2019-05-22T19:18:14.321Z,46.40
2019-05-22T19:20:45.198Z,46.90
2019-05-22T19:23:15.975Z,47.10
2019-05-22T19:25:47.532Z,47.40
2019-05-22T19:28:17.967Z,48.30
2019-05-22T19:30:48.797Z,48.80
2019-05-22T19:33:19.155Z,49.70
2019-05-22T19:35:49.998Z,50.30
2019-05-22T19:38:22.878Z,50.50
2019-05-22T19:40:52.867Z,51.60
2019-05-22T19:43:23.450Z,51.80
2019-05-22T19:45:53.923Z,51.90
2019-05-22T19:48:25.495Z,52.30
2019-05-22T19:50:55.976Z,52.90
2019-05-22T19:53:28.467Z,53.60
2019-05-22T19:55:59.530Z,53.90
2019-05-22T19:58:30.255Z,55.50
2019-05-22T20:01:01.376Z,55.50
2019-05-22T20:03:32.287Z,56.00
2019-05-22T20:06:05.397Z,56.80
2019-05-22T20:08:37.253Z,57.60
2019-05-22T20:11:08.792Z,58.40
2019-05-22T20:13:40.444Z,59.20
2019-05-22T20:16:11.149Z,60.70
2019-05-22T20:18:41.949Z,61.40
2019-05-22T20:21:12.278Z,62.70
2019-05-22T20:23:44.661Z,64.90
2019-05-22T20:26:16.083Z,65.90
2019-05-22T20:28:46.451Z,67.10
2019-05-22T20:31:16.887Z,68.90
2019-05-22T20:33:47.463Z,70.20
2019-05-22T20:36:18.481Z,71.80
2019-05-22T20:38:49.233Z,73.40
2019-05-22T20:41:20.103Z,74.50
2019-05-22T20:43:51.883Z,75.30
2019-05-22T20:46:23.187Z,75.80
2019-05-22T20:48:54.060Z,76.30
2019-05-22T20:51:25.402Z,76.80
2019-05-22T20:53:55.866Z,77.30
2019-05-22T20:56:27.593Z,78.10
2019-05-22T20:59:01.430Z,79.10
2019-05-22T21:01:33.152Z,80.00
2019-05-22T21:04:08.872Z,80.50
2019-05-22T21:06:49.041Z,80.60
2019-05-22T21:09:20.458Z,80.80
2019-05-22T21:11:51.857Z,82.10
2019-05-22T21:14:24.087Z,82.60
2019-05-22T21:16:54.568Z,83.50
2019-05-22T21:19:26.563Z,84.40
2019-05-22T21:21:57.984Z,85.20
2019-05-22T21:24:28.879Z,85.90
2019-05-22T21:26:59.492Z,85.80
2019-05-22T21:29:29.954Z,86.60
2019-05-22T21:32:01.700Z,86.90
2019-05-22T21:34:32.126Z,87.60
2019-05-22T21:37:04.516Z,88.00
2019-05-22T21:39:35.523Z,88.30
2019-05-22T21:42:07.551Z,88.80
2019-05-22T21:44:39.026Z,89.10
2019-05-22T21:47:10.447Z,89.90
2019-05-22T21:49:41.038Z,90.40
2019-05-22T21:52:11.560Z,90.20
2019-05-22T21:54:42.446Z,90.60
2019-05-22T21:57:15.033Z,90.40
2019-05-22T21:59:46.591Z,90.70
2019-05-22T22:02:30.455Z,91.40
2019-05-22T22:05:00.810Z,91.30
2019-05-22T22:07:31.958Z,91.40
2019-05-22T22:10:02.679Z,91.50
2019-05-22T22:12:33.690Z,91.70
2019-05-22T22:15:04.883Z,91.60
2019-05-22T22:17:37.126Z,91.60
2019-05-22T22:20:07.932Z,91.60
2019-05-22T22:22:38.258Z,91.90
2019-05-22T22:25:09.437Z,92.10
2019-05-22T22:27:39.883Z,92.60
2019-05-22T22:30:21.893Z,92.20
2019-05-22T22:32:52.626Z,93.10
2019-05-22T22:35:23.537Z,93.10
2019-05-22T22:37:53.970Z,94.10
2019-05-22T22:40:27.313Z,93.80
2019-05-22T22:42:57.645Z,94.20
2019-05-22T22:45:39.283Z,95.10
2019-05-22T22:48:09.813Z,96.10
2019-05-22T22:50:40.722Z,96.10
2019-05-22T22:53:13.883Z,95.80
2019-05-22T22:55:48.682Z,95.60
2019-05-22T22:58:19.570Z,95.80
2019-05-22T23:00:52.678Z,96.00
2019-05-22T23:03:26.684Z,96.30
2019-05-22T23:05:58.522Z,96.00
2019-05-22T23:08:31.367Z,96.40
2019-05-22T23:11:05.512Z,97.50
2019-05-22T23:13:37.336Z,98.30
2019-05-22T23:16:08.521Z,97.50
2019-05-22T23:19:40.771Z,97.60
2019-05-22T23:22:19.593Z,97.60
2019-05-22T23:24:52.072Z,97.20
2019-05-22T23:27:23.362Z,97.40
2019-05-22T23:29:56.039Z,97.70
2019-05-22T23:32:28.471Z,97.50
2019-05-22T23:34:59.449Z,97.60
2019-05-22T23:37:29.841Z,97.50
2019-05-22T23:40:01.712Z,97.60
2019-05-22T23:42:38.603Z,97.60
2019-05-22T23:45:14.844Z,97.70
2019-05-22T23:48:17.381Z,98.10
2019-05-22T23:50:48.314Z,98.30
2019-05-22T23:53:20.884Z,98.10
2019-05-22T23:55:51.295Z,98.30
2019-05-22T23:58:23.168Z,98.40
